October 1, 2022

Time Code Weather Temp. Visibility Ceiling Wind METAR/SPECI
04:00
M
26 °C 10 km+ 1,100 ft 220° 220° 11 kt METAR DBBB 010400Z 22011KT 9999 BKN011 26/23 Q1011 NOSIG
03:00
V
26 °C 10 km+ - 210° 210° 11 kt METAR DBBB 010300Z 21011KT 9999 SCT010 SCT012 26/23 Q1011 NOSIG
02:00
V
26 °C 10 km+ - 220° 220° 11 kt METAR DBBB 010200Z 22011KT 9999 SCT011 26/23 Q1011 NOSIG
01:00
V
26 °C 10 km+ - 210° 210° 11 kt METAR DBBB 010100Z 21011KT 9999 SCT011 26/23 Q1011 NOSIG
00:00
V
26 °C 10 km+ - 210° 210° 11 kt METAR DBBB 010000Z 21011KT 9999 SCT011 26/23 Q1011 NOSIG

September 30, 2022

Time Code Weather Temp. Visibility Ceiling Wind METAR/SPECI
23:00
V
26 °C 10 km+ - 220° 220° 12 kt METAR DBBB 302300Z 22012KT 9999 SCT011 26/23 Q1011 NOSIG
22:00
V
26 °C 10 km+ - 220° 220° 13 kt METAR DBBB 302200Z 22013KT 9999 SCT011 26/23 Q1011 NOSIG
21:00
V
26 °C 10 km+ - 220° 220° 13 kt METAR DBBB 302100Z 22013KT 9999 SCT011 26/23 Q1011 NOSIG
20:00
V
26 °C 10 km+ - 230° 230° 12 kt METAR DBBB 302000Z 23012KT 9999 SCT011 26/23 Q1011 NOSIG
19:00
V
26 °C 10 km+ - 240° 240° 11 kt METAR DBBB 301900Z 24011KT 9999 SCT011 26/23 Q1010 NOSIG
18:00
V
26 °C 10 km+ 4,000 ft 230° 230° 12 kt METAR DBBB 301800Z 23012KT 9999 TS SCT012 FEW020CB BKN040 26/23 Q1010 TEMPO BKN008 FEW019CB
17:00
V
27 °C 10 km+ 4,000 ft 220° 220° 13 kt METAR DBBB 301700Z 22013KT 9999 TS SCT012 FEW020CB BKN040 27/24 Q1010 TEMPO 6000 -TSRA BKN008 FEW019CB
16:00
V
27 °C 10 km+ 4,000 ft 220° 220° 15 kt METAR DBBB 301600Z 22015KT 9999 TS SCT012 FEW020CB BKN040 27/23 Q1009 TEMPO 4000 TSRA BKN008 FEW019CB
15:00
V
28 °C 10 km+ - 210° 210° 15 kt METAR DBBB 301500Z 21015KT 9999 TS SCT012 FEW020CB 28/24 Q1009 TEMPO 4000 TSRA BKN008 FEW019CB
14:00
V
28 °C 10 km+ - 220° 220° 15 kt METAR DBBB 301400Z 22015KT 9999 TS SCT013 FEW020CB 28/24 Q1010 TEMPO BKN008 FEW019CB
13:00
V
29 °C 10 km+ - 220° 220° 15 kt METAR DBBB 301300Z 22015KT 9999 SCT013 FEW020CB 29/24 Q1011 TEMPO TS
12:00
V
28 °C 10 km+ - 220° 220° 14 kt METAR DBBB 301200Z 22014KT 9999 SCT012 28/24 Q1012 NOSIG
11:00
V
28 °C 10 km+ - 230° 230° 12 kt METAR DBBB 301100Z 23012KT 9999 SCT012 28/24 Q1013 NOSIG
10:00
V
28 °C 10 km+ - 230° 230° 12 kt METAR DBBB 301000Z 23012KT 9999 SCT011 28/24 Q1013 NOSIG
09:00
V
28 °C 10 km+ - 240° 240° 11 kt METAR DBBB 300900Z 24011KT 9999 SCT011 28/24 Q1012 NOSIG
08:00
V
26 °C 10 km+ - 240° 240° 8 kt METAR DBBB 300800Z 24008KT 9999 SCT010 26/24 Q1012 NOSIG
07:00
V
25 °C 10 km+ - 260° 260° 6 kt METAR DBBB 300700Z 26006KT 9999 SCT009 25/23 Q1012 NOSIG
06:00
V
26 °C 10 km+ - 260° 260° 6 kt METAR DBBB 300600Z 26006KT 240V310 9999 SCT009 26/23 Q1011 TEMPO BKN008
05:00
V
25 °C 10 km+ - 240° 240° 8 kt METAR DBBB 300500Z 24008KT 9999 FEW012 25/23 Q1010 NOSIG
04:00
V
25 °C 10 km+ - 240° 240° 8 kt METAR DBBB 300400Z 24008KT 9999 SCT012 25/23 Q1010 NOSIG
03:00
V
25 °C 10 km+ - 240° 240° 7 kt METAR DBBB 300300Z 24007KT 9999 SCT012 25/23 Q1010 NOSIG
02:00
V
25 °C 10 km+ - 240° 240° 6 kt METAR DBBB 300200Z 24006KT 9999 SCT012 25/23 Q1010 NOSIG
01:00
V
25 °C 10 km+ - 240° 240° 7 kt METAR DBBB 300100Z 24007KT 9999 SCT012 25/23 Q1010 NOSIG
00:00
V
25 °C 10 km+ - 240° 240° 8 kt METAR DBBB 300000Z 24008KT 9999 SCT012 25/23 Q1011 NOSIG

September 29, 2022

Time Code Weather Temp. Visibility Ceiling Wind METAR/SPECI
22:00
V
25 °C 10 km+ - 230° 230° 8 kt METAR DBBB 292200Z 23008KT 9999 SCT012 25/23 Q1012 NOSIG
21:00
V
25 °C 10 km+ - 230° 230° 9 kt METAR DBBB 292100Z 23009KT 9999 SCT012 25/23 Q1012 NOSIG
20:00
V
25 °C 10 km+ - 230° 230° 9 kt METAR DBBB 292000Z 23009KT 9999 SCT012 25/23 Q1011 NOSIG
19:00
V
26 °C 10 km+ - 230° 230° 11 kt METAR DBBB 291900Z 23011KT 9999 SCT012 26/23 Q1011 NOSIG
18:00
V
26 °C 10 km+ - 240° 240° 11 kt METAR DBBB 291800Z 24011KT 9999 SCT012 26/23 Q1010 NOSIG
17:00
V
27 °C 10 km+ - 230° 230° 13 kt METAR DBBB 291700Z 23013KT 9999 SCT013 27/23 Q1010 NOSIG
16:00
V
27 °C 10 km+ - 220° 220° 13 kt METAR DBBB 291600Z 22013KT 9999 SCT013 27/24 Q1010 NOSIG
14:00
V
29 °C 10 km+ - 220° 220° 13 kt METAR DBBB 291400Z 22013KT 9999 SCT013 29/24 Q1011 NOSIG
13:00
V
28 °C 10 km+ - 220° 220° 10 kt METAR DBBB 291300Z 22010KT 190V250 9999 SCT011 SCT013 28/24 Q1012 NOSIG
12:00
V
28 °C 10 km+ - 210° 210° 10 kt METAR DBBB 291200Z 21010KT 9999 SCT013 FEW022TCU 28/24 Q1013 NOSIG
11:00
V
28 °C 10 km+ - 210° 210° 8 kt METAR DBBB 291100Z 21008KT 9999 SCT012 28/23 Q1013 NOSIG
10:00
M
29 °C 10 km+ 1,200 ft 240° 240° 7 kt METAR DBBB 291000Z 24007KT 200V270 9999 BKN012 29/23 Q1014 NOSIG
09:00
V
28 °C 10 km+ - 230° 230° 6 kt METAR DBBB 290900Z 23006KT 180V310 9999 SCT010 SCT013 28/24 Q1014 NOSIG
08:00
V
24 °C 8 km - 290° 290° 4 kt METAR DBBB 290800Z 29004KT 250V330 8000 SCT010 24/23 Q1013 NOSIG
07:00
I
24 °C 4 km - Var Var 2 kt METAR DBBB 290700Z VRB02KT 4000 -RA SCT008 SCT012 24/23 Q1012 NOSIG
06:00
V
24 °C 8 km - Var Var 2 kt METAR DBBB 290600Z VRB02KT 8000 SCT008 SCT012 24/23 Q1012 TEMPO 4000 SHRA BKN007
05:00
V
24 °C 8 km - Var Var 1 kt METAR DBBB 290500Z VRB01KT 8000 SCT011 24/23 Q1011 NOSIG
03:00
V
24 °C 8 km - 300° 300° 3 kt METAR DBBB 290300Z 30003KT 8000 SCT011 24/23 Q1011 NOSIG
Older data

We and third parties follow your internet behavior on our website with cookies. If you continue, we assume you agree with our cookie policy. Learn more